sensor_id;sensor_type;location;lat;lon;timestamp;temperature;humidity
25410;DHT22;13339;50.840;4.346;2023-10-13T00:00:29;20.90;99.90
25410;DHT22;13339;50.840;4.346;2023-10-13T00:02:57;21.00;99.90
25410;DHT22;13339;50.840;4.346;2023-10-13T00:05:29;20.90;99.90
25410;DHT22;13339;50.840;4.346;2023-10-13T00:07:57;20.90;99.90
25410;DHT22;13339;50.840;4.346;2023-10-13T00:10:29;20.90;99.90
25410;DHT22;13339;50.840;4.346;2023-10-13T00:12:55;21.00;99.90
25410;DHT22;13339;50.840;4.346;2023-10-13T00:15:31;20.90;99.90
25410;DHT22;13339;50.840;4.346;2023-10-13T00:18:05;20.90;99.90
25410;DHT22;13339;50.840;4.346;2023-10-13T00:20:43;20.90;99.90
25410;DHT22;13339;50.840;4.346;2023-10-13T00:23:14;20.90;99.90
25410;DHT22;13339;50.840;4.346;2023-10-13T00:25:49;20.90;99.90
25410;DHT22;13339;50.840;4.346;2023-10-13T00:28:26;20.90;99.90
25410;DHT22;13339;50.840;4.346;2023-10-13T00:31:12;20.90;99.90
25410;DHT22;13339;50.840;4.346;2023-10-13T00:33:40;20.90;99.90
25410;DHT22;13339;50.840;4.346;2023-10-13T00:36:07;20.90;99.90
25410;DHT22;13339;50.840;4.346;2023-10-13T00:38:34;20.90;99.90
25410;DHT22;13339;50.840;4.346;2023-10-13T00:41:01;20.80;99.90
25410;DHT22;13339;50.840;4.346;2023-10-13T00:43:47;20.80;99.90
25410;DHT22;13339;50.840;4.346;2023-10-13T00:46:34;20.80;99.90
25410;DHT22;13339;50.840;4.346;2023-10-13T00:49:02;20.80;99.90
25410;DHT22;13339;50.840;4.346;2023-10-13T00:51:30;20.80;99.90
25410;DHT22;13339;50.840;4.346;2023-10-13T00:54:08;20.80;99.90
25410;DHT22;13339;50.840;4.346;2023-10-13T00:56:41;20.70;99.90
25410;DHT22;13339;50.840;4.346;2023-10-13T00:59:23;20.70;99.90
25410;DHT22;13339;50.840;4.346;2023-10-13T01:01:51;20.80;99.90
25410;DHT22;13339;50.840;4.346;2023-10-13T01:04:21;20.80;99.90
25410;DHT22;13339;50.840;4.346;2023-10-13T01:06:50;20.80;99.90
25410;DHT22;13339;50.840;4.346;2023-10-13T01:09:16;20.80;99.90
25410;DHT22;13339;50.840;4.346;2023-10-13T01:11:48;20.80;99.90
25410;DHT22;13339;50.840;4.346;2023-10-13T01:14:20;20.80;99.90
25410;DHT22;13339;50.840;4.346;2023-10-13T01:16:48;20.90;99.90
25410;DHT22;13339;50.840;4.346;2023-10-13T01:19:18;20.80;99.90
25410;DHT22;13339;50.840;4.346;2023-10-13T01:21:46;20.80;99.90
25410;DHT22;13339;50.840;4.346;2023-10-13T01:24:13;20.90;99.90
25410;DHT22;13339;50.840;4.346;2023-10-13T01:26:43;20.90;99.90
25410;DHT22;13339;50.840;4.346;2023-10-13T01:29:09;20.80;99.90
25410;DHT22;13339;50.840;4.346;2023-10-13T01:31:42;20.80;99.90
25410;DHT22;13339;50.840;4.346;2023-10-13T01:34:18;20.80;99.90
25410;DHT22;13339;50.840;4.346;2023-10-13T01:36:51;20.80;99.90
25410;DHT22;13339;50.840;4.346;2023-10-13T01:39:17;20.80;99.90
25410;DHT22;13339;50.840;4.346;2023-10-13T01:41:44;20.80;99.90
25410;DHT22;13339;50.840;4.346;2023-10-13T01:44:10;20.90;99.90
25410;DHT22;13339;50.840;4.346;2023-10-13T01:46:40;20.80;99.90
25410;DHT22;13339;50.840;4.346;2023-10-13T01:49:08;20.90;99.90
25410;DHT22;13339;50.840;4.346;2023-10-13T01:51:34;20.80;99.90
25410;DHT22;13339;50.840;4.346;2023-10-13T01:53:59;20.80;99.90
25410;DHT22;13339;50.840;4.346;2023-10-13T01:56:28;20.80;99.90
25410;DHT22;13339;50.840;4.346;2023-10-13T01:58:56;20.70;99.90
25410;DHT22;13339;50.840;4.346;2023-10-13T02:01:22;20.80;99.90
25410;DHT22;13339;50.840;4.346;2023-10-13T02:03:57;20.80;99.90
25410;DHT22;13339;50.840;4.346;2023-10-13T02:06:30;20.90;99.90
25410;DHT22;13339;50.840;4.346;2023-10-13T02:09:02;20.80;99.90
25410;DHT22;13339;50.840;4.346;2023-10-13T02:11:45;20.80;99.90
25410;DHT22;13339;50.840;4.346;2023-10-13T02:14:12;20.70;99.90
25410;DHT22;13339;50.840;4.346;2023-10-13T02:16:41;20.60;99.90
25410;DHT22;13339;50.840;4.346;2023-10-13T02:19:07;20.60;99.90
25410;DHT22;13339;50.840;4.346;2023-10-13T02:21:34;20.60;99.90
25410;DHT22;13339;50.840;4.346;2023-10-13T02:24:07;20.60;99.90
25410;DHT22;13339;50.840;4.346;2023-10-13T02:26:40;20.60;99.90
25410;DHT22;13339;50.840;4.346;2023-10-13T02:29:06;20.60;99.90
25410;DHT22;13339;50.840;4.346;2023-10-13T02:31:39;20.60;99.90
25410;DHT22;13339;50.840;4.346;2023-10-13T02:34:05;20.60;99.90
25410;DHT22;13339;50.840;4.346;2023-10-13T02:36:35;20.50;99.90
25410;DHT22;13339;50.840;4.346;2023-10-13T02:39:19;20.50;99.90
25410;DHT22;13339;50.840;4.346;2023-10-13T02:41:53;20.60;99.90
25410;DHT22;13339;50.840;4.346;2023-10-13T02:44:21;20.60;99.90
25410;DHT22;13339;50.840;4.346;2023-10-13T02:46:55;20.50;99.90
25410;DHT22;13339;50.840;4.346;2023-10-13T02:49:26;20.60;99.90
25410;DHT22;13339;50.840;4.346;2023-10-13T02:51:53;20.50;99.90
25410;DHT22;13339;50.840;4.346;2023-10-13T02:54:21;20.60;99.90
25410;DHT22;13339;50.840;4.346;2023-10-13T02:56:46;20.60;99.90
25410;DHT22;13339;50.840;4.346;2023-10-13T02:59:30;20.60;99.90
25410;DHT22;13339;50.840;4.346;2023-10-13T03:02:16;20.60;99.90
25410;DHT22;13339;50.840;4.346;2023-10-13T03:04:53;20.60;99.90
25410;DHT22;13339;50.840;4.346;2023-10-13T03:07:27;20.70;99.90
25410;DHT22;13339;50.840;4.346;2023-10-13T03:09:57;20.60;99.90
25410;DHT22;13339;50.840;4.346;2023-10-13T03:12:25;20.50;99.90
25410;DHT22;13339;50.840;4.346;2023-10-13T03:14:51;20.50;99.90
25410;DHT22;13339;50.840;4.346;2023-10-13T03:17:35;20.60;99.90
25410;DHT22;13339;50.840;4.346;2023-10-13T03:20:01;20.70;99.90
25410;DHT22;13339;50.840;4.346;2023-10-13T03:22:26;20.70;99.90
25410;DHT22;13339;50.840;4.346;2023-10-13T03:24:59;20.70;99.90
25410;DHT22;13339;50.840;4.346;2023-10-13T03:27:33;20.70;99.90
25410;DHT22;13339;50.840;4.346;2023-10-13T03:30:13;20.70;99.90
25410;DHT22;13339;50.840;4.346;2023-10-13T03:32:45;20.60;99.90
25410;DHT22;13339;50.840;4.346;2023-10-13T03:35:21;20.50;99.90
25410;DHT22;13339;50.840;4.346;2023-10-13T03:37:53;20.50;99.90
25410;DHT22;13339;50.840;4.346;2023-10-13T03:40:20;20.50;99.90
25410;DHT22;13339;50.840;4.346;2023-10-13T03:42:52;20.60;99.90
25410;DHT22;13339;50.840;4.346;2023-10-13T03:45:36;20.60;99.90
25410;DHT22;13339;50.840;4.346;2023-10-13T03:48:09;20.60;99.90
25410;DHT22;13339;50.840;4.346;2023-10-13T03:50:39;20.60;99.90
25410;DHT22;13339;50.840;4.346;2023-10-13T03:53:14;20.70;99.90
25410;DHT22;13339;50.840;4.346;2023-10-13T03:55:40;20.60;99.90
25410;DHT22;13339;50.840;4.346;2023-10-13T03:58:16;20.60;99.90
25410;DHT22;13339;50.840;4.346;2023-10-13T04:00:42;20.50;99.90
25410;DHT22;13339;50.840;4.346;2023-10-13T04:03:08;20.50;99.90
25410;DHT22;13339;50.840;4.346;2023-10-13T04:05:35;20.40;99.90
25410;DHT22;13339;50.840;4.346;2023-10-13T04:08:11;20.40;99.90
25410;DHT22;13339;50.840;4.346;2023-10-13T04:11:02;20.40;99.90
25410;DHT22;13339;50.840;4.346;2023-10-13T04:13:47;20.40;99.90
25410;DHT22;13339;50.840;4.346;2023-10-13T04:16:35;20.50;99.90
25410;DHT22;13339;50.840;4.346;2023-10-13T04:19:02;20.40;99.90
25410;DHT22;13339;50.840;4.346;2023-10-13T04:21:28;20.40;99.90
25410;DHT22;13339;50.840;4.346;2023-10-13T04:24:10;20.50;99.90
25410;DHT22;13339;50.840;4.346;2023-10-13T04:26:54;20.30;99.90
25410;DHT22;13339;50.840;4.346;2023-10-13T04:29:52;20.30;99.90
25410;DHT22;13339;50.840;4.346;2023-10-13T04:32:36;20.40;99.90
25410;DHT22;13339;50.840;4.346;2023-10-13T04:35:11;20.30;99.90
25410;DHT22;13339;50.840;4.346;2023-10-13T04:37:40;20.40;99.90
25410;DHT22;13339;50.840;4.346;2023-10-13T04:40:27;20.40;99.90
25410;DHT22;13339;50.840;4.346;2023-10-13T04:43:01;20.50;99.90
25410;DHT22;13339;50.840;4.346;2023-10-13T04:45:42;20.60;99.90
25410;DHT22;13339;50.840;4.346;2023-10-13T04:48:19;20.50;99.90
25410;DHT22;13339;50.840;4.346;2023-10-13T04:50:47;20.40;99.90
25410;DHT22;13339;50.840;4.346;2023-10-13T04:53:16;20.50;99.90
25410;DHT22;13339;50.840;4.346;2023-10-13T04:56:20;20.50;99.90
25410;DHT22;13339;50.840;4.346;2023-10-13T04:59:09;20.50;99.90
25410;DHT22;13339;50.840;4.346;2023-10-13T05:02:01;20.60;99.90
25410;DHT22;13339;50.840;4.346;2023-10-13T05:04:46;20.50;99.90
25410;DHT22;13339;50.840;4.346;2023-10-13T05:07:32;20.40;99.90
25410;DHT22;13339;50.840;4.346;2023-10-13T05:10:17;20.40;99.90
25410;DHT22;13339;50.840;4.346;2023-10-13T05:13:01;20.40;99.90
25410;DHT22;13339;50.840;4.346;2023-10-13T05:15:50;20.40;99.90
25410;DHT22;13339;50.840;4.346;2023-10-13T05:18:35;20.40;99.90
25410;DHT22;13339;50.840;4.346;2023-10-13T05:21:19;20.40;99.90
25410;DHT22;13339;50.840;4.346;2023-10-13T05:24:05;20.50;99.90
25410;DHT22;13339;50.840;4.346;2023-10-13T05:26:49;20.50;99.90
25410;DHT22;13339;50.840;4.346;2023-10-13T05:29:33;20.50;99.90
25410;DHT22;13339;50.840;4.346;2023-10-13T05:32:18;20.50;99.90
25410;DHT22;13339;50.840;4.346;2023-10-13T05:35:02;20.50;99.90
25410;DHT22;13339;50.840;4.346;2023-10-13T05:37:46;20.40;99.90
25410;DHT22;13339;50.840;4.346;2023-10-13T05:40:30;20.50;99.90
25410;DHT22;13339;50.840;4.346;2023-10-13T05:43:14;20.60;99.90
25410;DHT22;13339;50.840;4.346;2023-10-13T05:46:03;20.60;99.90
25410;DHT22;13339;50.840;4.346;2023-10-13T05:48:48;20.60;99.90
25410;DHT22;13339;50.840;4.346;2023-10-13T05:51:23;20.60;99.90
25410;DHT22;13339;50.840;4.346;2023-10-13T05:53:57;20.60;99.90
25410;DHT22;13339;50.840;4.346;2023-10-13T05:56:51;20.60;99.90
25410;DHT22;13339;50.840;4.346;2023-10-13T05:59:37;20.60;99.90
25410;DHT22;13339;50.840;4.346;2023-10-13T06:02:23;20.60;99.90
25410;DHT22;13339;50.840;4.346;2023-10-13T06:05:09;20.60;99.90
25410;DHT22;13339;50.840;4.346;2023-10-13T06:07:54;20.60;99.90
25410;DHT22;13339;50.840;4.346;2023-10-13T06:10:39;20.60;99.90
25410;DHT22;13339;50.840;4.346;2023-10-13T06:13:23;20.60;99.90
25410;DHT22;13339;50.840;4.346;2023-10-13T06:16:08;20.50;99.90
25410;DHT22;13339;50.840;4.346;2023-10-13T06:18:52;20.50;99.90
25410;DHT22;13339;50.840;4.346;2023-10-13T06:21:37;20.50;99.90
25410;DHT22;13339;50.840;4.346;2023-10-13T06:24:22;20.50;99.90
25410;DHT22;13339;50.840;4.346;2023-10-13T06:27:06;20.40;99.90
25410;DHT22;13339;50.840;4.346;2023-10-13T06:29:50;20.40;99.90
25410;DHT22;13339;50.840;4.346;2023-10-13T06:32:15;20.50;99.90
25410;DHT22;13339;50.840;4.346;2023-10-13T06:34:42;20.60;99.90
25410;DHT22;13339;50.840;4.346;2023-10-13T06:37:14;20.60;99.90
25410;DHT22;13339;50.840;4.346;2023-10-13T06:39:50;20.50;99.90
25410;DHT22;13339;50.840;4.346;2023-10-13T06:42:16;20.60;99.90
25410;DHT22;13339;50.840;4.346;2023-10-13T06:44:47;20.60;99.90
25410;DHT22;13339;50.840;4.346;2023-10-13T06:47:13;20.60;99.90
25410;DHT22;13339;50.840;4.346;2023-10-13T06:49:41;20.60;99.90
25410;DHT22;13339;50.840;4.346;2023-10-13T06:52:11;20.70;99.90
25410;DHT22;13339;50.840;4.346;2023-10-13T06:54:37;20.70;99.90
25410;DHT22;13339;50.840;4.346;2023-10-13T06:57:05;20.70;99.90
25410;DHT22;13339;50.840;4.346;2023-10-13T06:59:33;20.80;99.90
25410;DHT22;13339;50.840;4.346;2023-10-13T07:02:00;20.80;99.90
25410;DHT22;13339;50.840;4.346;2023-10-13T07:04:35;20.70;99.90
25410;DHT22;13339;50.840;4.346;2023-10-13T07:07:05;20.80;99.90
25410;DHT22;13339;50.840;4.346;2023-10-13T07:09:32;20.80;99.90
25410;DHT22;13339;50.840;4.346;2023-10-13T07:12:02;20.80;99.90
25410;DHT22;13339;50.840;4.346;2023-10-13T07:14:52;20.80;99.90
25410;DHT22;13339;50.840;4.346;2023-10-13T07:17:19;20.90;99.90
25410;DHT22;13339;50.840;4.346;2023-10-13T07:19:52;20.90;99.90
25410;DHT22;13339;50.840;4.346;2023-10-13T07:22:38;21.00;99.90
25410;DHT22;13339;50.840;4.346;2023-10-13T07:25:05;21.10;99.90
25410;DHT22;13339;50.840;4.346;2023-10-13T07:27:34;21.20;99.90
25410;DHT22;13339;50.840;4.346;2023-10-13T07:30:01;21.30;99.90
25410;DHT22;13339;50.840;4.346;2023-10-13T07:32:42;21.30;99.90
25410;DHT22;13339;50.840;4.346;2023-10-13T07:35:15;21.30;99.90
25410;DHT22;13339;50.840;4.346;2023-10-13T07:37:43;21.40;99.90
25410;DHT22;13339;50.840;4.346;2023-10-13T07:40:10;21.40;99.90
25410;DHT22;13339;50.840;4.346;2023-10-13T07:42:50;21.50;99.90
25410;DHT22;13339;50.840;4.346;2023-10-13T07:45:16;21.50;99.90
25410;DHT22;13339;50.840;4.346;2023-10-13T07:47:53;21.50;99.90
25410;DHT22;13339;50.840;4.346;2023-10-13T07:50:19;21.60;99.90
25410;DHT22;13339;50.840;4.346;2023-10-13T07:52:56;21.50;99.90
25410;DHT22;13339;50.840;4.346;2023-10-13T07:55:31;21.60;99.90
25410;DHT22;13339;50.840;4.346;2023-10-13T07:57:59;21.60;99.90
25410;DHT22;13339;50.840;4.346;2023-10-13T08:00:26;21.70;99.90
25410;DHT22;13339;50.840;4.346;2023-10-13T08:02:59;21.60;99.90
25410;DHT22;13339;50.840;4.346;2023-10-13T08:05:40;21.70;99.90
25410;DHT22;13339;50.840;4.346;2023-10-13T08:08:33;21.90;99.90
25410;DHT22;13339;50.840;4.346;2023-10-13T08:13:49;21.80;99.90
25410;DHT22;13339;50.840;4.346;2023-10-13T08:16:21;21.90;99.90
25410;DHT22;13339;50.840;4.346;2023-10-13T08:18:51;21.90;99.90
25410;DHT22;13339;50.840;4.346;2023-10-13T08:21:18;22.00;99.90
25410;DHT22;13339;50.840;4.346;2023-10-13T08:23:50;22.10;99.90
25410;DHT22;13339;50.840;4.346;2023-10-13T08:26:23;22.10;99.90
25410;DHT22;13339;50.840;4.346;2023-10-13T08:29:17;22.20;99.90
25410;DHT22;13339;50.840;4.346;2023-10-13T08:31:50;22.10;99.90
25410;DHT22;13339;50.840;4.346;2023-10-13T08:34:36;22.10;99.90
25410;DHT22;13339;50.840;4.346;2023-10-13T08:37:10;22.10;99.90
25410;DHT22;13339;50.840;4.346;2023-10-13T08:39:45;22.20;99.90
25410;DHT22;13339;50.840;4.346;2023-10-13T08:42:32;22.20;99.90
25410;DHT22;13339;50.840;4.346;2023-10-13T08:45:07;22.20;99.90
25410;DHT22;13339;50.840;4.346;2023-10-13T08:47:52;22.30;99.90
25410;DHT22;13339;50.840;4.346;2023-10-13T08:50:35;22.30;99.90
25410;DHT22;13339;50.840;4.346;2023-10-13T08:56:05;22.30;99.90
25410;DHT22;13339;50.840;4.346;2023-10-13T08:58:58;22.40;99.90
25410;DHT22;13339;50.840;4.346;2023-10-13T09:01:30;22.40;99.90
25410;DHT22;13339;50.840;4.346;2023-10-13T09:03:58;22.30;99.90
25410;DHT22;13339;50.840;4.346;2023-10-13T09:06:48;22.40;99.90
25410;DHT22;13339;50.840;4.346;2023-10-13T09:09:49;22.50;99.90
25410;DHT22;13339;50.840;4.346;2023-10-13T09:12:21;22.60;99.90
25410;DHT22;13339;50.840;4.346;2023-10-13T09:15:00;22.60;99.90
25410;DHT22;13339;50.840;4.346;2023-10-13T09:17:47;22.50;99.90
25410;DHT22;13339;50.840;4.346;2023-10-13T09:20:17;22.30;99.90
25410;DHT22;13339;50.840;4.346;2023-10-13T09:22:50;22.40;99.90
25410;DHT22;13339;50.840;4.346;2023-10-13T09:25:31;22.40;99.90
25410;DHT22;13339;50.840;4.346;2023-10-13T09:28:02;22.60;99.90
25410;DHT22;13339;50.840;4.346;2023-10-13T09:30:28;22.70;99.90
25410;DHT22;13339;50.840;4.346;2023-10-13T09:33:04;22.80;99.90
25410;DHT22;13339;50.840;4.346;2023-10-13T09:35:31;22.70;99.90
25410;DHT22;13339;50.840;4.346;2023-10-13T09:38:00;22.90;99.90
25410;DHT22;13339;50.840;4.346;2023-10-13T09:40:30;22.90;99.90
25410;DHT22;13339;50.840;4.346;2023-10-13T09:42:59;23.00;99.90
25410;DHT22;13339;50.840;4.346;2023-10-13T09:45:31;23.00;99.90
25410;DHT22;13339;50.840;4.346;2023-10-13T09:48:12;23.10;99.90
25410;DHT22;13339;50.840;4.346;2023-10-13T09:50:48;23.10;99.90
25410;DHT22;13339;50.840;4.346;2023-10-13T09:53:15;23.20;99.90
25410;DHT22;13339;50.840;4.346;2023-10-13T09:56:00;23.20;99.90
25410;DHT22;13339;50.840;4.346;2023-10-13T09:58:47;23.20;99.90
25410;DHT22;13339;50.840;4.346;2023-10-13T10:01:19;23.30;99.90
25410;DHT22;13339;50.840;4.346;2023-10-13T10:04:10;23.20;99.90
25410;DHT22;13339;50.840;4.346;2023-10-13T10:06:39;23.30;99.90
25410;DHT22;13339;50.840;4.346;2023-10-13T10:09:10;23.40;99.90
25410;DHT22;13339;50.840;4.346;2023-10-13T10:17:13;23.50;99.90
25410;DHT22;13339;50.840;4.346;2023-10-13T10:19:49;23.60;99.90
25410;DHT22;13339;50.840;4.346;2023-10-13T10:22:30;23.60;99.90
25410;DHT22;13339;50.840;4.346;2023-10-13T10:25:03;23.60;99.90
25410;DHT22;13339;50.840;4.346;2023-10-13T10:27:30;23.60;99.90
25410;DHT22;13339;50.840;4.346;2023-10-13T10:29:57;23.70;99.90
25410;DHT22;13339;50.840;4.346;2023-10-13T10:32:36;23.70;99.90
25410;DHT22;13339;50.840;4.346;2023-10-13T10:35:11;23.70;99.90
25410;DHT22;13339;50.840;4.346;2023-10-13T10:37:46;23.70;99.90
25410;DHT22;13339;50.840;4.346;2023-10-13T10:40:14;23.60;99.90
25410;DHT22;13339;50.840;4.346;2023-10-13T10:42:58;23.80;99.90
25410;DHT22;13339;50.840;4.346;2023-10-13T10:45:27;23.80;99.90
25410;DHT22;13339;50.840;4.346;2023-10-13T10:47:59;23.80;99.90
25410;DHT22;13339;50.840;4.346;2023-10-13T10:50:27;23.90;99.90
25410;DHT22;13339;50.840;4.346;2023-10-13T10:53:05;24.10;99.90
25410;DHT22;13339;50.840;4.346;2023-10-13T10:55:37;24.20;99.90
25410;DHT22;13339;50.840;4.346;2023-10-13T10:58:04;24.30;99.90
25410;DHT22;13339;50.840;4.346;2023-10-13T11:01:05;24.30;99.90
25410;DHT22;13339;50.840;4.346;2023-10-13T11:03:37;24.50;99.90
25410;DHT22;13339;50.840;4.346;2023-10-13T11:06:11;24.50;99.90
25410;DHT22;13339;50.840;4.346;2023-10-13T11:08:42;24.60;99.90
25410;DHT22;13339;50.840;4.346;2023-10-13T11:11:09;24.50;99.90
25410;DHT22;13339;50.840;4.346;2023-10-13T11:13:44;24.60;99.90
25410;DHT22;13339;50.840;4.346;2023-10-13T11:16:22;24.60;99.90
25410;DHT22;13339;50.840;4.346;2023-10-13T11:19:03;24.70;99.90
25410;DHT22;13339;50.840;4.346;2023-10-13T11:21:30;24.80;99.90
25410;DHT22;13339;50.840;4.346;2023-10-13T11:23:59;24.70;99.90
25410;DHT22;13339;50.840;4.346;2023-10-13T11:26:37;24.70;99.90
25410;DHT22;13339;50.840;4.346;2023-10-13T11:29:19;24.70;99.90
25410;DHT22;13339;50.840;4.346;2023-10-13T11:31:48;24.70;99.90
25410;DHT22;13339;50.840;4.346;2023-10-13T11:34:24;24.70;99.90
25410;DHT22;13339;50.840;4.346;2023-10-13T11:36:51;24.80;99.90
25410;DHT22;13339;50.840;4.346;2023-10-13T11:39:16;24.90;99.90
25410;DHT22;13339;50.840;4.346;2023-10-13T11:41:50;24.90;99.90
25410;DHT22;13339;50.840;4.346;2023-10-13T11:44:25;24.90;99.90
25410;DHT22;13339;50.840;4.346;2023-10-13T11:46:52;25.10;99.90
25410;DHT22;13339;50.840;4.346;2023-10-13T11:49:42;25.00;99.90
25410;DHT22;13339;50.840;4.346;2023-10-13T11:52:07;25.00;99.90
25410;DHT22;13339;50.840;4.346;2023-10-13T11:54:42;25.00;99.90
25410;DHT22;13339;50.840;4.346;2023-10-13T11:57:08;25.20;99.90
25410;DHT22;13339;50.840;4.346;2023-10-13T11:59:34;25.00;99.90
25410;DHT22;13339;50.840;4.346;2023-10-13T12:02:01;25.10;99.90
25410;DHT22;13339;50.840;4.346;2023-10-13T12:04:38;25.10;99.90
25410;DHT22;13339;50.840;4.346;2023-10-13T12:07:27;25.10;99.90
25410;DHT22;13339;50.840;4.346;2023-10-13T12:10:06;25.00;99.90
25410;DHT22;13339;50.840;4.346;2023-10-13T12:12:40;25.00;99.90
25410;DHT22;13339;50.840;4.346;2023-10-13T12:15:08;25.00;99.90
25410;DHT22;13339;50.840;4.346;2023-10-13T12:17:35;25.00;99.90
25410;DHT22;13339;50.840;4.346;2023-10-13T12:20:02;25.00;99.90
25410;DHT22;13339;50.840;4.346;2023-10-13T12:22:32;24.80;99.90
25410;DHT22;13339;50.840;4.346;2023-10-13T12:25:17;24.80;99.90
25410;DHT22;13339;50.840;4.346;2023-10-13T12:27:57;24.70;99.90
25410;DHT22;13339;50.840;4.346;2023-10-13T12:30:25;24.70;99.90
25410;DHT22;13339;50.840;4.346;2023-10-13T12:33:09;24.50;99.90
25410;DHT22;13339;50.840;4.346;2023-10-13T12:35:36;24.40;99.90
25410;DHT22;13339;50.840;4.346;2023-10-13T12:38:24;24.50;99.90
25410;DHT22;13339;50.840;4.346;2023-10-13T12:41:08;24.60;99.90
25410;DHT22;13339;50.840;4.346;2023-10-13T12:43:52;24.60;99.90
25410;DHT22;13339;50.840;4.346;2023-10-13T12:46:36;24.50;99.90
25410;DHT22;13339;50.840;4.346;2023-10-13T12:49:20;24.50;99.90
25410;DHT22;13339;50.840;4.346;2023-10-13T12:52:13;24.40;99.90
25410;DHT22;13339;50.840;4.346;2023-10-13T12:54:45;24.40;99.90
25410;DHT22;13339;50.840;4.346;2023-10-13T12:57:24;24.40;99.90
25410;DHT22;13339;50.840;4.346;2023-10-13T12:59:50;24.40;99.90
25410;DHT22;13339;50.840;4.346;2023-10-13T13:02:20;24.50;99.90
25410;DHT22;13339;50.840;4.346;2023-10-13T13:04:46;24.50;99.90
25410;DHT22;13339;50.840;4.346;2023-10-13T13:07:16;24.50;99.90
25410;DHT22;13339;50.840;4.346;2023-10-13T13:09:42;24.60;99.90
25410;DHT22;13339;50.840;4.346;2023-10-13T13:12:08;24.60;99.90
25410;DHT22;13339;50.840;4.346;2023-10-13T13:14:38;24.60;99.90
25410;DHT22;13339;50.840;4.346;2023-10-13T13:17:07;24.70;99.90
25410;DHT22;13339;50.840;4.346;2023-10-13T13:19:37;24.60;99.90
25410;DHT22;13339;50.840;4.346;2023-10-13T13:22:08;24.60;99.90
25410;DHT22;13339;50.840;4.346;2023-10-13T13:24:44;24.50;99.90
25410;DHT22;13339;50.840;4.346;2023-10-13T13:27:14;24.60;99.90
25410;DHT22;13339;50.840;4.346;2023-10-13T13:29:45;24.60;99.90
25410;DHT22;13339;50.840;4.346;2023-10-13T13:32:11;24.50;99.90
25410;DHT22;13339;50.840;4.346;2023-10-13T13:34:45;24.40;99.90
25410;DHT22;13339;50.840;4.346;2023-10-13T13:37:20;24.40;99.90
25410;DHT22;13339;50.840;4.346;2023-10-13T13:39:45;24.40;99.90
25410;DHT22;13339;50.840;4.346;2023-10-13T13:42:11;24.50;99.90
25410;DHT22;13339;50.840;4.346;2023-10-13T13:44:46;24.60;99.90
25410;DHT22;13339;50.840;4.346;2023-10-13T13:47:12;24.70;99.90
25410;DHT22;13339;50.840;4.346;2023-10-13T13:49:41;24.70;99.90
25410;DHT22;13339;50.840;4.346;2023-10-13T13:52:18;24.70;99.90
25410;DHT22;13339;50.840;4.346;2023-10-13T13:54:47;24.60;99.90
25410;DHT22;13339;50.840;4.346;2023-10-13T13:57:13;24.60;99.90
25410;DHT22;13339;50.840;4.346;2023-10-13T13:59:39;24.60;99.90
25410;DHT22;13339;50.840;4.346;2023-10-13T14:02:09;24.60;99.90
25410;DHT22;13339;50.840;4.346;2023-10-13T14:04:48;24.60;99.90
25410;DHT22;13339;50.840;4.346;2023-10-13T14:07:22;24.60;99.90
25410;DHT22;13339;50.840;4.346;2023-10-13T14:09:49;24.60;99.90
25410;DHT22;13339;50.840;4.346;2023-10-13T14:12:21;24.60;99.90
25410;DHT22;13339;50.840;4.346;2023-10-13T14:15:13;24.50;99.90
25410;DHT22;13339;50.840;4.346;2023-10-13T14:17:51;24.50;99.90
25410;DHT22;13339;50.840;4.346;2023-10-13T14:20:18;24.60;99.90
25410;DHT22;13339;50.840;4.346;2023-10-13T14:22:45;24.50;99.90
25410;DHT22;13339;50.840;4.346;2023-10-13T14:25:14;24.40;99.90
25410;DHT22;13339;50.840;4.346;2023-10-13T14:27:41;24.30;99.90
25410;DHT22;13339;50.840;4.346;2023-10-13T14:30:07;24.30;99.90
25410;DHT22;13339;50.840;4.346;2023-10-13T14:32:34;24.40;99.90
25410;DHT22;13339;50.840;4.346;2023-10-13T14:35:06;24.40;99.90
25410;DHT22;13339;50.840;4.346;2023-10-13T14:37:40;24.40;99.90
25410;DHT22;13339;50.840;4.346;2023-10-13T14:40:07;24.30;99.90
25410;DHT22;13339;50.840;4.346;2023-10-13T14:42:38;24.30;99.90
25410;DHT22;13339;50.840;4.346;2023-10-13T14:45:06;24.20;99.90
25410;DHT22;13339;50.840;4.346;2023-10-13T14:47:39;24.20;99.90
25410;DHT22;13339;50.840;4.346;2023-10-13T14:50:05;24.30;99.90
25410;DHT22;13339;50.840;4.346;2023-10-13T14:52:31;24.20;99.90
25410;DHT22;13339;50.840;4.346;2023-10-13T14:54:57;24.20;99.90
25410;DHT22;13339;50.840;4.346;2023-10-13T14:57:23;24.10;99.90
25410;DHT22;13339;50.840;4.346;2023-10-13T14:59:53;24.20;99.90
25410;DHT22;13339;50.840;4.346;2023-10-13T15:02:19;24.10;99.90
25410;DHT22;13339;50.840;4.346;2023-10-13T15:04:49;23.90;99.90
25410;DHT22;13339;50.840;4.346;2023-10-13T15:07:16;23.90;99.90
25410;DHT22;13339;50.840;4.346;2023-10-13T15:09:44;24.00;99.90
25410;DHT22;13339;50.840;4.346;2023-10-13T15:12:10;24.00;99.90
25410;DHT22;13339;50.840;4.346;2023-10-13T15:14:39;24.00;99.90
25410;DHT22;13339;50.840;4.346;2023-10-13T15:17:08;23.90;99.90
25410;DHT22;13339;50.840;4.346;2023-10-13T15:19:35;23.90;99.90
25410;DHT22;13339;50.840;4.346;2023-10-13T15:22:09;23.90;99.90
25410;DHT22;13339;50.840;4.346;2023-10-13T15:24:53;23.90;99.90
25410;DHT22;13339;50.840;4.346;2023-10-13T15:27:37;23.80;99.90
25410;DHT22;13339;50.840;4.346;2023-10-13T15:30:07;23.70;99.90
25410;DHT22;13339;50.840;4.346;2023-10-13T15:32:45;23.70;99.90
25410;DHT22;13339;50.840;4.346;2023-10-13T15:35:11;23.70;99.90
25410;DHT22;13339;50.840;4.346;2023-10-13T15:37:39;23.60;99.90
25410;DHT22;13339;50.840;4.346;2023-10-13T15:40:07;23.60;99.90
25410;DHT22;13339;50.840;4.346;2023-10-13T15:42:41;23.50;99.90
25410;DHT22;13339;50.840;4.346;2023-10-13T15:45:08;23.50;99.90
25410;DHT22;13339;50.840;4.346;2023-10-13T15:47:51;23.50;99.90
25410;DHT22;13339;50.840;4.346;2023-10-13T15:50:17;23.40;99.90
25410;DHT22;13339;50.840;4.346;2023-10-13T15:52:46;23.50;99.90
25410;DHT22;13339;50.840;4.346;2023-10-13T15:55:13;23.40;99.90
25410;DHT22;13339;50.840;4.346;2023-10-13T15:57:39;23.30;99.90
25410;DHT22;13339;50.840;4.346;2023-10-13T16:00:06;23.30;99.90
25410;DHT22;13339;50.840;4.346;2023-10-13T16:02:54;23.30;99.90
25410;DHT22;13339;50.840;4.346;2023-10-13T16:05:39;23.30;99.90
25410;DHT22;13339;50.840;4.346;2023-10-13T16:08:08;23.30;99.90
25410;DHT22;13339;50.840;4.346;2023-10-13T16:10:37;23.30;99.90
25410;DHT22;13339;50.840;4.346;2023-10-13T16:13:03;23.30;99.90
25410;DHT22;13339;50.840;4.346;2023-10-13T16:15:30;23.30;99.90
25410;DHT22;13339;50.840;4.346;2023-10-13T16:17:56;23.30;99.90
25410;DHT22;13339;50.840;4.346;2023-10-13T16:20:22;23.20;99.90
25410;DHT22;13339;50.840;4.346;2023-10-13T16:22:50;23.10;99.90